sensor_id;sensor_type;location;lat;lon;timestamp;pressure;altitude;pressure_sealevel;temperature;humidity
58598;BME280;60319;46.908;16.848;2022-07-29T00:02:03;99489.81;;;18.22;100.00
58598;BME280;60319;46.908;16.848;2022-07-29T00:07:04;99483.56;;;18.15;100.00
58598;BME280;60319;46.908;16.848;2022-07-29T00:12:05;99475.69;;;18.14;100.00
58598;BME280;60319;46.908;16.848;2022-07-29T00:17:05;99477.56;;;18.13;100.00
58598;BME280;60319;46.908;16.848;2022-07-29T00:22:06;99481.44;;;18.10;100.00
58598;BME280;60319;46.908;16.848;2022-07-29T00:27:06;99481.38;;;18.04;100.00
58598;BME280;60319;46.908;16.848;2022-07-29T00:32:07;99486.69;;;17.97;100.00
58598;BME280;60319;46.908;16.848;2022-07-29T00:37:07;99482.06;;;17.91;100.00
58598;BME280;60319;46.908;16.848;2022-07-29T00:42:08;99488.88;;;17.87;100.00
58598;BME280;60319;46.908;16.848;2022-07-29T00:47:10;99481.19;;;17.83;100.00
58598;BME280;60319;46.908;16.848;2022-07-29T00:52:11;99484.91;;;17.82;100.00
58598;BME280;60319;46.908;16.848;2022-07-29T00:57:12;99489.00;;;17.78;100.00
58598;BME280;60319;46.908;16.848;2022-07-29T01:02:13;99485.41;;;17.71;100.00
58598;BME280;60319;46.908;16.848;2022-07-29T01:07:14;99485.72;;;17.61;100.00
58598;BME280;60319;46.908;16.848;2022-07-29T01:12:17;99482.59;;;17.57;100.00
58598;BME280;60319;46.908;16.848;2022-07-29T01:23:13;99475.47;;;17.50;100.00
58598;BME280;60319;46.908;16.848;2022-07-29T01:28:34;99471.13;;;17.49;100.00
58598;BME280;60319;46.908;16.848;2022-07-29T01:33:41;99475.59;;;17.41;100.00
58598;BME280;60319;46.908;16.848;2022-07-29T01:38:58;99469.78;;;17.38;100.00
58598;BME280;60319;46.908;16.848;2022-07-29T01:44:05;99476.16;;;17.37;100.00
58598;BME280;60319;46.908;16.848;2022-07-29T01:49:14;99469.25;;;17.27;100.00
58598;BME280;60319;46.908;16.848;2022-07-29T01:59:23;99468.72;;;17.17;100.00
58598;BME280;60319;46.908;16.848;2022-07-29T02:04:25;99470.09;;;17.13;100.00
58598;BME280;60319;46.908;16.848;2022-07-29T02:09:28;99466.97;;;17.09;100.00
58598;BME280;60319;46.908;16.848;2022-07-29T02:14:34;99467.50;;;17.04;100.00
58598;BME280;60319;46.908;16.848;2022-07-29T02:19:37;99461.69;;;17.01;100.00
58598;BME280;60319;46.908;16.848;2022-07-29T02:24:39;99462.88;;;16.98;100.00
58598;BME280;60319;46.908;16.848;2022-07-29T02:29:40;99462.78;;;16.91;100.00
58598;BME280;60319;46.908;16.848;2022-07-29T02:34:42;99456.59;;;16.91;100.00
58598;BME280;60319;46.908;16.848;2022-07-29T02:39:44;99454.28;;;16.88;100.00
58598;BME280;60319;46.908;16.848;2022-07-29T02:44:45;99455.69;;;16.84;100.00
58598;BME280;60319;46.908;16.848;2022-07-29T02:49:57;99453.56;;;16.79;100.00
58598;BME280;60319;46.908;16.848;2022-07-29T02:55:25;99441.53;;;16.75;100.00
58598;BME280;60319;46.908;16.848;2022-07-29T03:00:31;99449.75;;;16.73;100.00
58598;BME280;60319;46.908;16.848;2022-07-29T03:05:35;99452.81;;;16.70;100.00
58598;BME280;60319;46.908;16.848;2022-07-29T03:10:37;99446.16;;;16.66;100.00
58598;BME280;60319;46.908;16.848;2022-07-29T03:15:39;99452.72;;;16.63;100.00
58598;BME280;60319;46.908;16.848;2022-07-29T03:20:39;99446.88;;;16.60;100.00
58598;BME280;60319;46.908;16.848;2022-07-29T03:25:40;99449.13;;;16.56;100.00
58598;BME280;60319;46.908;16.848;2022-07-29T03:30:41;99459.00;;;16.55;100.00
58598;BME280;60319;46.908;16.848;2022-07-29T03:35:41;99449.75;;;16.58;100.00
58598;BME280;60319;46.908;16.848;2022-07-29T03:40:56;99445.03;;;16.60;100.00
58598;BME280;60319;46.908;16.848;2022-07-29T03:45:57;99447.38;;;16.63;100.00
58598;BME280;60319;46.908;16.848;2022-07-29T03:51:00;99450.97;;;16.71;100.00
58598;BME280;60319;46.908;16.848;2022-07-29T03:56:02;99447.94;;;16.74;100.00
58598;BME280;60319;46.908;16.848;2022-07-29T04:01:03;99442.25;;;16.84;100.00
58598;BME280;60319;46.908;16.848;2022-07-29T04:06:06;99454.81;;;16.98;100.00
58598;BME280;60319;46.908;16.848;2022-07-29T04:11:07;99456.44;;;17.29;100.00
58598;BME280;60319;46.908;16.848;2022-07-29T04:16:07;99466.50;;;19.90;100.00
58598;BME280;60319;46.908;16.848;2022-07-29T04:21:08;99463.06;;;22.25;89.49
58598;BME280;60319;46.908;16.848;2022-07-29T04:26:08;99459.69;;;24.09;77.57
58598;BME280;60319;46.908;16.848;2022-07-29T04:31:11;99459.91;;;25.78;70.49
58598;BME280;60319;46.908;16.848;2022-07-29T04:36:12;99459.78;;;27.26;64.00
58598;BME280;60319;46.908;16.848;2022-07-29T04:41:13;99463.03;;;28.59;58.85
58598;BME280;60319;46.908;16.848;2022-07-29T04:46:13;99461.94;;;29.30;55.80
58598;BME280;60319;46.908;16.848;2022-07-29T04:51:14;99456.25;;;30.20;53.11
58598;BME280;60319;46.908;16.848;2022-07-29T04:56:15;99455.28;;;31.72;50.03
58598;BME280;60319;46.908;16.848;2022-07-29T05:01:16;99450.47;;;32.72;46.72
58598;BME280;60319;46.908;16.848;2022-07-29T05:06:16;99449.16;;;33.08;45.77
58598;BME280;60319;46.908;16.848;2022-07-29T05:11:17;99457.88;;;33.73;43.41
58598;BME280;60319;46.908;16.848;2022-07-29T05:16:17;99456.38;;;34.42;41.29
58598;BME280;60319;46.908;16.848;2022-07-29T05:21:18;99460.63;;;35.05;40.06
58598;BME280;60319;46.908;16.848;2022-07-29T05:26:18;99456.34;;;35.72;39.42
58598;BME280;60319;46.908;16.848;2022-07-29T05:31:19;99466.84;;;36.66;37.56
58598;BME280;60319;46.908;16.848;2022-07-29T05:36:19;99471.84;;;37.13;35.71
58598;BME280;60319;46.908;16.848;2022-07-29T05:41:20;99470.72;;;37.58;34.98
58598;BME280;60319;46.908;16.848;2022-07-29T05:46:21;99476.63;;;38.31;34.50
58598;BME280;60319;46.908;16.848;2022-07-29T05:51:21;99484.56;;;38.50;33.21
58598;BME280;60319;46.908;16.848;2022-07-29T05:56:22;99490.81;;;38.77;32.57
58598;BME280;60319;46.908;16.848;2022-07-29T06:01:23;99482.72;;;39.15;32.17
58598;BME280;60319;46.908;16.848;2022-07-29T06:06:24;99470.81;;;39.70;30.65
58598;BME280;60319;46.908;16.848;2022-07-29T06:11:24;99475.28;;;39.96;30.40
58598;BME280;60319;46.908;16.848;2022-07-29T06:16:25;99474.09;;;40.43;30.74
58598;BME280;60319;46.908;16.848;2022-07-29T06:21:25;99474.31;;;40.25;30.25
58598;BME280;60319;46.908;16.848;2022-07-29T06:26:26;99469.72;;;39.83;33.16
58598;BME280;60319;46.908;16.848;2022-07-29T06:31:26;99469.59;;;40.51;30.98
58598;BME280;60319;46.908;16.848;2022-07-29T06:36:27;99466.53;;;40.81;30.30
58598;BME280;60319;46.908;16.848;2022-07-29T06:41:27;99463.66;;;40.90;28.17
58598;BME280;60319;46.908;16.848;2022-07-29T06:46:28;99456.69;;;40.71;27.80
58598;BME280;60319;46.908;16.848;2022-07-29T06:51:29;99457.28;;;40.14;28.17
58598;BME280;60319;46.908;16.848;2022-07-29T06:56:34;99460.63;;;40.20;27.35
58598;BME280;60319;46.908;16.848;2022-07-29T07:01:40;99448.81;;;39.77;28.75
58598;BME280;60319;46.908;16.848;2022-07-29T07:06:41;99457.63;;;40.38;27.49
58598;BME280;60319;46.908;16.848;2022-07-29T07:11:41;99465.78;;;39.84;28.40
58598;BME280;60319;46.908;16.848;2022-07-29T07:16:42;99468.31;;;39.89;27.96
58598;BME280;60319;46.908;16.848;2022-07-29T07:21:42;99458.09;;;39.47;28.78
58598;BME280;60319;46.908;16.848;2022-07-29T07:26:43;99456.97;;;39.27;29.21
58598;BME280;60319;46.908;16.848;2022-07-29T07:31:43;99469.28;;;38.96;29.20
58598;BME280;60319;46.908;16.848;2022-07-29T07:36:44;99466.53;;;38.57;30.19
58598;BME280;60319;46.908;16.848;2022-07-29T07:41:44;99467.16;;;37.58;31.63
58598;BME280;60319;46.908;16.848;2022-07-29T07:46:45;99447.44;;;36.48;32.95
58598;BME280;60319;46.908;16.848;2022-07-29T07:51:45;99457.28;;;35.68;35.80
58598;BME280;60319;46.908;16.848;2022-07-29T07:56:46;99452.63;;;35.03;36.36
58598;BME280;60319;46.908;16.848;2022-07-29T08:01:49;99462.91;;;34.46;36.62
58598;BME280;60319;46.908;16.848;2022-07-29T08:06:50;99465.91;;;34.03;38.64
58598;BME280;60319;46.908;16.848;2022-07-29T08:11:51;99461.66;;;33.77;37.44
58598;BME280;60319;46.908;16.848;2022-07-29T08:16:52;99459.59;;;33.30;39.61
58598;BME280;60319;46.908;16.848;2022-07-29T08:21:52;99460.59;;;33.21;39.17
58598;BME280;60319;46.908;16.848;2022-07-29T08:26:53;99466.81;;;33.07;40.55
58598;BME280;60319;46.908;16.848;2022-07-29T08:31:54;99462.22;;;33.22;40.48
58598;BME280;60319;46.908;16.848;2022-07-29T08:36:55;99463.34;;;33.21;39.65
58598;BME280;60319;46.908;16.848;2022-07-29T08:41:56;99464.53;;;32.46;39.46
58598;BME280;60319;46.908;16.848;2022-07-29T08:46:57;99472.00;;;32.35;41.56
58598;BME280;60319;46.908;16.848;2022-07-29T08:51:58;99453.16;;;32.53;39.58
58598;BME280;60319;46.908;16.848;2022-07-29T08:57:00;99465.19;;;32.03;40.75
58598;BME280;60319;46.908;16.848;2022-07-29T09:02:02;99465.06;;;31.84;38.92
58598;BME280;60319;46.908;16.848;2022-07-29T09:07:04;99463.41;;;32.18;39.49
58598;BME280;60319;46.908;16.848;2022-07-29T09:12:06;99461.00;;;31.76;39.63
58598;BME280;60319;46.908;16.848;2022-07-29T09:17:08;99463.31;;;31.13;40.39
58598;BME280;60319;46.908;16.848;2022-07-29T09:22:09;99453.38;;;30.61;41.80
58598;BME280;60319;46.908;16.848;2022-07-29T09:27:20;99450.41;;;30.53;43.37
58598;BME280;60319;46.908;16.848;2022-07-29T09:32:21;99447.41;;;31.10;41.29
58598;BME280;60319;46.908;16.848;2022-07-29T09:37:28;99449.56;;;31.63;41.71
58598;BME280;60319;46.908;16.848;2022-07-29T09:42:30;99443.69;;;32.10;39.37
58598;BME280;60319;46.908;16.848;2022-07-29T09:47:44;99440.56;;;32.47;40.43
58598;BME280;60319;46.908;16.848;2022-07-29T09:52:47;99441.84;;;32.79;39.46
58598;BME280;60319;46.908;16.848;2022-07-29T09:57:48;99438.38;;;32.68;37.57
58598;BME280;60319;46.908;16.848;2022-07-29T10:02:49;99437.19;;;32.25;36.94
58598;BME280;60319;46.908;16.848;2022-07-29T10:07:53;99439.03;;;31.76;39.70
58598;BME280;60319;46.908;16.848;2022-07-29T10:13:02;99427.28;;;32.00;37.92
58598;BME280;60319;46.908;16.848;2022-07-29T10:18:03;99430.34;;;31.63;38.70
58598;BME280;60319;46.908;16.848;2022-07-29T10:23:05;99424.34;;;31.56;36.82
58598;BME280;60319;46.908;16.848;2022-07-29T10:28:06;99419.72;;;31.81;40.00
58598;BME280;60319;46.908;16.848;2022-07-29T10:43:33;99416.19;;;32.84;40.38
58598;BME280;60319;46.908;16.848;2022-07-29T10:54:19;99410.16;;;33.39;39.05
58598;BME280;60319;46.908;16.848;2022-07-29T10:59:36;99407.47;;;33.87;36.00
58598;BME280;60319;46.908;16.848;2022-07-29T11:10:27;99390.22;;;34.09;35.00
58598;BME280;60319;46.908;16.848;2022-07-29T11:15:26;99380.75;;;34.29;33.40
58598;BME280;60319;46.908;16.848;2022-07-29T11:25:46;99389.50;;;33.56;37.07
58598;BME280;60319;46.908;16.848;2022-07-29T11:31:08;99384.75;;;33.42;37.01
58598;BME280;60319;46.908;16.848;2022-07-29T11:36:13;99377.81;;;33.64;37.01
58598;BME280;60319;46.908;16.848;2022-07-29T11:46:46;99377.50;;;32.75;37.40
58598;BME280;60319;46.908;16.848;2022-07-29T11:51:52;99375.34;;;31.98;38.73
58598;BME280;60319;46.908;16.848;2022-07-29T11:56:53;99371.03;;;31.62;39.34
58598;BME280;60319;46.908;16.848;2022-07-29T12:01:56;99366.00;;;31.70;40.86
58598;BME280;60319;46.908;16.848;2022-07-29T12:06:57;99360.75;;;32.03;39.68
58598;BME280;60319;46.908;16.848;2022-07-29T12:11:58;99354.56;;;32.16;38.38
58598;BME280;60319;46.908;16.848;2022-07-29T12:17:00;99362.16;;;32.69;34.93
58598;BME280;60319;46.908;16.848;2022-07-29T12:22:00;99345.28;;;32.75;36.70
58598;BME280;60319;46.908;16.848;2022-07-29T12:27:01;99347.78;;;33.29;36.07
58598;BME280;60319;46.908;16.848;2022-07-29T12:32:02;99341.41;;;33.48;36.41
58598;BME280;60319;46.908;16.848;2022-07-29T12:37:04;99332.22;;;33.39;34.53
58598;BME280;60319;46.908;16.848;2022-07-29T12:42:12;99324.59;;;33.16;36.98
58598;BME280;60319;46.908;16.848;2022-07-29T12:47:13;99331.16;;;33.21;37.32
58598;BME280;60319;46.908;16.848;2022-07-29T12:52:27;99324.91;;;33.15;36.39
58598;BME280;60319;46.908;16.848;2022-07-29T12:57:28;99309.63;;;33.23;36.69
58598;BME280;60319;46.908;16.848;2022-07-29T13:02:28;99300.31;;;32.66;35.41
58598;BME280;60319;46.908;16.848;2022-07-29T13:07:31;99301.47;;;32.60;37.69
58598;BME280;60319;46.908;16.848;2022-07-29T13:12:32;99297.16;;;32.73;36.91
58598;BME280;60319;46.908;16.848;2022-07-29T13:17:40;99302.31;;;32.60;36.96
58598;BME280;60319;46.908;16.848;2022-07-29T13:22:42;99303.72;;;32.77;38.51
58598;BME280;60319;46.908;16.848;2022-07-29T13:27:47;99297.28;;;33.01;38.14
58598;BME280;60319;46.908;16.848;2022-07-29T13:32:48;99291.38;;;33.27;37.24
58598;BME280;60319;46.908;16.848;2022-07-29T13:37:49;99292.63;;;33.35;37.04
58598;BME280;60319;46.908;16.848;2022-07-29T13:42:50;99290.63;;;33.07;38.42
58598;BME280;60319;46.908;16.848;2022-07-29T13:47:50;99284.31;;;32.87;36.80
58598;BME280;60319;46.908;16.848;2022-07-29T13:52:51;99282.66;;;32.86;38.29
58598;BME280;60319;46.908;16.848;2022-07-29T13:57:51;99278.50;;;32.70;36.02
58598;BME280;60319;46.908;16.848;2022-07-29T14:02:52;99270.19;;;32.56;37.48
58598;BME280;60319;46.908;16.848;2022-07-29T14:07:52;99267.81;;;32.05;38.29
58598;BME280;60319;46.908;16.848;2022-07-29T14:12:53;99260.50;;;31.71;37.65
58598;BME280;60319;46.908;16.848;2022-07-29T14:17:54;99255.22;;;31.74;37.57
58598;BME280;60319;46.908;16.848;2022-07-29T14:22:54;99250.97;;;32.12;37.44
58598;BME280;60319;46.908;16.848;2022-07-29T14:27:55;99253.06;;;32.39;37.13
58598;BME280;60319;46.908;16.848;2022-07-29T14:32:55;99243.72;;;32.60;38.47
58598;BME280;60319;46.908;16.848;2022-07-29T14:37:56;99242.19;;;32.53;36.61
58598;BME280;60319;46.908;16.848;2022-07-29T14:42:57;99250.44;;;32.53;37.87
58598;BME280;60319;46.908;16.848;2022-07-29T14:47:57;99239.03;;;32.60;38.50
58598;BME280;60319;46.908;16.848;2022-07-29T14:53:01;99235.41;;;32.65;38.55
58598;BME280;60319;46.908;16.848;2022-07-29T14:58:01;99234.47;;;32.70;38.03
58598;BME280;60319;46.908;16.848;2022-07-29T15:03:02;99229.41;;;32.77;38.13
58598;BME280;60319;46.908;16.848;2022-07-29T15:08:03;99224.66;;;32.83;38.49
58598;BME280;60319;46.908;16.848;2022-07-29T15:13:04;99226.66;;;32.77;37.63
58598;BME280;60319;46.908;16.848;2022-07-29T15:18:05;99219.34;;;32.53;38.04
58598;BME280;60319;46.908;16.848;2022-07-29T15:23:06;99217.59;;;31.99;37.99
58598;BME280;60319;46.908;16.848;2022-07-29T15:28:09;99217.41;;;31.66;39.20
58598;BME280;60319;46.908;16.848;2022-07-29T15:33:10;99200.75;;;31.33;40.58
58598;BME280;60319;46.908;16.848;2022-07-29T15:38:10;99209.53;;;31.35;40.38
58598;BME280;60319;46.908;16.848;2022-07-29T15:43:11;99204.78;;;31.41;40.94
58598;BME280;60319;46.908;16.848;2022-07-29T15:48:11;99188.69;;;31.29;41.57
58598;BME280;60319;46.908;16.848;2022-07-29T15:53:13;99191.16;;;31.00;42.28
58598;BME280;60319;46.908;16.848;2022-07-29T15:58:13;99184.81;;;30.75;43.10
58598;BME280;60319;46.908;16.848;2022-07-29T16:03:14;99191.56;;;30.48;42.86
58598;BME280;60319;46.908;16.848;2022-07-29T16:08:15;99186.53;;;30.21;44.54
58598;BME280;60319;46.908;16.848;2022-07-29T16:13:15;99178.41;;;30.00;45.08
58598;BME280;60319;46.908;16.848;2022-07-29T16:18:16;99180.34;;;29.89;45.42
58598;BME280;60319;46.908;16.848;2022-07-29T16:23:17;99189.47;;;29.69;46.00
58598;BME280;60319;46.908;16.848;2022-07-29T16:28:20;99177.19;;;29.51;47.81
58598;BME280;60319;46.908;16.848;2022-07-29T16:33:21;99180.84;;;29.09;48.25
58598;BME280;60319;46.908;16.848;2022-07-29T16:38:21;99183.88;;;29.03;48.73
58598;BME280;60319;46.908;16.848;2022-07-29T16:43:22;99180.03;;;28.93;49.75
58598;BME280;60319;46.908;16.848;2022-07-29T16:48:22;99178.41;;;28.71;49.87
58598;BME280;60319;46.908;16.848;2022-07-29T16:53:23;99184.66;;;28.51;50.76
58598;BME280;60319;46.908;16.848;2022-07-29T16:58:24;99185.75;;;28.35;51.03
58598;BME280;60319;46.908;16.848;2022-07-29T17:03:24;99169.84;;;28.26;51.27
58598;BME280;60319;46.908;16.848;2022-07-29T17:08:25;99182.13;;;28.18;50.70
58598;BME280;60319;46.908;16.848;2022-07-29T17:13:25;99186.72;;;28.02;51.58
58598;BME280;60319;46.908;16.848;2022-07-29T17:18:26;99182.56;;;27.79;52.90
58598;BME280;60319;46.908;16.848;2022-07-29T17:23:27;99179.16;;;27.56;54.15
58598;BME280;60319;46.908;16.848;2022-07-29T17:28:28;99179.56;;;27.32;55.00
58598;BME280;60319;46.908;16.848;2022-07-29T17:33:29;99172.84;;;27.07;55.37
58598;BME280;60319;46.908;16.848;2022-07-29T17:38:29;99181.63;;;26.82;56.54
58598;BME280;60319;46.908;16.848;2022-07-29T17:43:30;99187.41;;;26.52;58.09
58598;BME280;60319;46.908;16.848;2022-07-29T17:48:30;99180.66;;;26.33;58.84
58598;BME280;60319;46.908;16.848;2022-07-29T17:53:31;99197.59;;;26.12;60.00
58598;BME280;60319;46.908;16.848;2022-07-29T17:58:32;99194.34;;;25.93;60.31
58598;BME280;60319;46.908;16.848;2022-07-29T18:03:32;99194.31;;;25.66;62.02
58598;BME280;60319;46.908;16.848;2022-07-29T18:08:33;99180.56;;;25.38;64.65
58598;BME280;60319;46.908;16.848;2022-07-29T18:13:34;99198.81;;;25.20;65.34
58598;BME280;60319;46.908;16.848;2022-07-29T18:18:34;99192.81;;;25.01;68.33
58598;BME280;60319;46.908;16.848;2022-07-29T18:23:38;99193.44;;;24.74;69.88
58598;BME280;60319;46.908;16.848;2022-07-29T18:28:38;99192.75;;;24.49;71.05
58598;BME280;60319;46.908;16.848;2022-07-29T18:33:39;99191.69;;;24.21;74.72
58598;BME280;60319;46.908;16.848;2022-07-29T18:38:39;99199.53;;;23.94;77.72
58598;BME280;60319;46.908;16.848;2022-07-29T18:43:42;99199.59;;;23.70;78.76
58598;BME280;60319;46.908;16.848;2022-07-29T18:48:44;99216.50;;;23.48;81.15
58598;BME280;60319;46.908;16.848;2022-07-29T18:53:45;99209.28;;;23.30;83.41
58598;BME280;60319;46.908;16.848;2022-07-29T18:58:45;99218.94;;;23.14;83.84
58598;BME280;60319;46.908;16.848;2022-07-29T19:03:46;99223.19;;;22.98;84.58
58598;BME280;60319;46.908;16.848;2022-07-29T19:08:46;99225.59;;;22.75;86.19
58598;BME280;60319;46.908;16.848;2022-07-29T19:13:48;99231.44;;;22.60;87.84
58598;BME280;60319;46.908;16.848;2022-07-29T19:18:48;99243.63;;;22.51;88.20
58598;BME280;60319;46.908;16.848;2022-07-29T19:23:49;99248.63;;;22.35;89.94
58598;BME280;60319;46.908;16.848;2022-07-29T19:28:51;99260.22;;;22.24;92.53
58598;BME280;60319;46.908;16.848;2022-07-29T19:33:52;99261.13;;;22.17;91.96
58598;BME280;60319;46.908;16.848;2022-07-29T19:38:52;99270.16;;;22.11;92.68
58598;BME280;60319;46.908;16.848;2022-07-29T19:43:53;99274.22;;;22.02;93.35
58598;BME280;60319;46.908;16.848;2022-07-29T19:48:54;99263.09;;;21.91;94.71
58598;BME280;60319;46.908;16.848;2022-07-29T19:53:55;99268.59;;;21.85;95.58
58598;BME280;60319;46.908;16.848;2022-07-29T19:58:56;99279.50;;;21.78;96.19
58598;BME280;60319;46.908;16.848;2022-07-29T20:03:57;99286.41;;;21.74;97.00
58598;BME280;60319;46.908;16.848;2022-07-29T20:08:57;99291.59;;;21.68;97.29
58598;BME280;60319;46.908;16.848;2022-07-29T20:13:58;99286.63;;;21.65;97.78
58598;BME280;60319;46.908;16.848;2022-07-29T20:18:58;99298.28;;;21.66;98.69
58598;BME280;60319;46.908;16.848;2022-07-29T20:23:59;99290.03;;;21.61;99.13
58598;BME280;60319;46.908;16.848;2022-07-29T20:29:01;99293.72;;;21.66;97.95
58598;BME280;60319;46.908;16.848;2022-07-29T20:34:04;99293.88;;;21.72;96.95
58598;BME280;60319;46.908;16.848;2022-07-29T20:39:05;99296.31;;;21.80;96.42
58598;BME280;60319;46.908;16.848;2022-07-29T20:44:06;99295.13;;;21.94;95.49
58598;BME280;60319;46.908;16.848;2022-07-29T20:49:06;99296.47;;;22.04;95.04
58598;BME280;60319;46.908;16.848;2022-07-29T20:54:07;99295.66;;;22.03;94.71
58598;BME280;60319;46.908;16.848;2022-07-29T20:59:08;99300.63;;;22.06;95.48
58598;BME280;60319;46.908;16.848;2022-07-29T21:04:08;99290.91;;;22.17;94.34
58598;BME280;60319;46.908;16.848;2022-07-29T21:09:09;99296.88;;;22.26;93.88
58598;BME280;60319;46.908;16.848;2022-07-29T21:14:11;99290.97;;;22.29;93.66
58598;BME280;60319;46.908;16.848;2022-07-29T21:19:28;99290.00;;;22.24;95.02
58598;BME280;60319;46.908;16.848;2022-07-29T21:24:29;99284.56;;;22.24;95.16
58598;BME280;60319;46.908;16.848;2022-07-29T21:29:29;99275.75;;;22.16;97.34
58598;BME280;60319;46.908;16.848;2022-07-29T21:34:30;99267.75;;;22.22;96.74
58598;BME280;60319;46.908;16.848;2022-07-29T21:39:30;99280.69;;;22.19;97.09
58598;BME280;60319;46.908;16.848;2022-07-29T21:44:31;99273.03;;;22.16;96.92
58598;BME280;60319;46.908;16.848;2022-07-29T21:49:31;99261.28;;;22.04;98.71
58598;BME280;60319;46.908;16.848;2022-07-29T21:54:32;99266.19;;;21.95;98.97
58598;BME280;60319;46.908;16.848;2022-07-29T21:59:32;99256.03;;;21.90;99.95
58598;BME280;60319;46.908;16.848;2022-07-29T22:04:33;99265.44;;;21.88;100.00
58598;BME280;60319;46.908;16.848;2022-07-29T22:09:34;99267.81;;;21.77;100.00
58598;BME280;60319;46.908;16.848;2022-07-29T22:14:35;99273.78;;;21.86;100.00
58598;BME280;60319;46.908;16.848;2022-07-29T22:19:35;99282.88;;;21.92;100.00
58598;BME280;60319;46.908;16.848;2022-07-29T22:24:36;99313.56;;;22.04;100.00
58598;BME280;60319;46.908;16.848;2022-07-29T22:29:37;99321.44;;;22.06;100.00
58598;BME280;60319;46.908;16.848;2022-07-29T22:34:38;99289.09;;;21.92;100.00
58598;BME280;60319;46.908;16.848;2022-07-29T22:39:38;99307.22;;;21.92;100.00
58598;BME280;60319;46.908;16.848;2022-07-29T22:44:39;99273.59;;;21.81;100.00
58598;BME280;60319;46.908;16.848;2022-07-29T22:49:39;99275.56;;;21.92;99.51
58598;BME280;60319;46.908;16.848;2022-07-29T22:54:40;99267.75;;;22.03;98.03
58598;BME280;60319;46.908;16.848;2022-07-29T22:59:40;99258.81;;;22.02;96.85
58598;BME280;60319;46.908;16.848;2022-07-29T23:04:41;99249.88;;;22.02;96.35
58598;BME280;60319;46.908;16.848;2022-07-29T23:09:41;99245.25;;;22.02;95.84
58598;BME280;60319;46.908;16.848;2022-07-29T23:14:41;99223.69;;;21.96;96.09
58598;BME280;60319;46.908;16.848;2022-07-29T23:19:43;99229.78;;;21.91;96.41
58598;BME280;60319;46.908;16.848;2022-07-29T23:24:43;99229.06;;;21.84;96.50
58598;BME280;60319;46.908;16.848;2022-07-29T23:29:44;99218.09;;;21.53;98.37
58598;BME280;60319;46.908;16.848;2022-07-29T23:34:44;99206.81;;;21.37;99.51
58598;BME280;60319;46.908;16.848;2022-07-29T23:39:45;99207.50;;;21.51;97.98
58598;BME280;60319;46.908;16.848;2022-07-29T23:44:45;99216.75;;;21.43;98.23
58598;BME280;60319;46.908;16.848;2022-07-29T23:49:46;99198.34;;;21.34;98.71
58598;BME280;60319;46.908;16.848;2022-07-29T23:54:49;99205.78;;;21.13;100.00
58598;BME280;60319;46.908;16.848;2022-07-29T23:59:50;99198.06;;;21.16;100.00
